createdAt,value
2022-12-13T00:00:14.397Z,27.05
2022-12-13T00:02:59.546Z,25.25
2022-12-13T00:05:45.455Z,24.52
2022-12-13T00:08:31.008Z,22.77
2022-12-13T00:11:16.751Z,24.23
2022-12-13T00:14:02.247Z,21.48
2022-12-13T00:16:49.241Z,24.55
2022-12-13T00:19:34.608Z,28.00
2022-12-13T00:22:19.776Z,26.17
2022-12-13T00:25:05.448Z,25.85
2022-12-13T00:27:50.565Z,28.20
2022-12-13T00:30:35.695Z,28.70
2022-12-13T00:33:21.232Z,26.50
2022-12-13T00:36:08.142Z,24.77
2022-12-13T00:39:02.284Z,25.90
2022-12-13T00:41:47.931Z,25.05
2022-12-13T00:44:33.213Z,24.85
2022-12-13T00:47:20.801Z,28.58
2022-12-13T00:50:06.486Z,23.13
2022-12-13T00:52:52.015Z,24.85
2022-12-13T00:55:40.896Z,26.58
2022-12-13T00:58:26.186Z,25.88
2022-12-13T01:01:14.567Z,27.00
2022-12-13T01:04:01.865Z,26.45
2022-12-13T01:06:49.854Z,24.33
2022-12-13T01:09:35.253Z,26.15
2022-12-13T01:12:20.447Z,26.75
2022-12-13T01:15:06.885Z,21.63
2022-12-13T01:17:52.394Z,21.38
2022-12-13T01:20:37.860Z,21.92
2022-12-13T01:23:23.034Z,22.55
2022-12-13T01:26:14.079Z,32.92
2022-12-13T01:28:59.857Z,27.55
2022-12-13T01:31:45.342Z,27.20
2022-12-13T01:34:30.982Z,23.58
2022-12-13T01:37:17.519Z,30.38
2022-12-13T01:40:15.802Z,28.60
2022-12-13T01:45:59.974Z,31.70
2022-12-13T01:49:01.574Z,29.45
2022-12-13T01:51:54.150Z,30.70
2022-12-13T01:54:46.716Z,33.65
2022-12-13T01:57:34.741Z,27.77
2022-12-13T02:00:20.009Z,27.02
2022-12-13T02:03:05.703Z,26.48
2022-12-13T02:06:19.663Z,26.77
2022-12-13T02:09:07.038Z,25.10
2022-12-13T02:11:52.942Z,29.08
2022-12-13T02:14:40.699Z,26.63
2022-12-13T02:17:53.032Z,27.52
2022-12-13T02:20:50.337Z,27.10
2022-12-13T02:23:57.118Z,31.48
2022-12-13T02:26:51.971Z,31.60
2022-12-13T02:29:56.387Z,26.45
2022-12-13T02:33:10.350Z,29.35
2022-12-13T02:36:14.616Z,30.77
2022-12-13T02:39:03.231Z,32.05
2022-12-13T02:41:51.027Z,32.05
2022-12-13T02:44:48.774Z,31.48
2022-12-13T02:47:35.685Z,30.20
2022-12-13T02:50:22.510Z,30.30
2022-12-13T02:53:09.739Z,33.75
2022-12-13T02:55:55.256Z,28.88
2022-12-13T02:58:49.199Z,29.73
2022-12-13T03:01:45.561Z,30.60
2022-12-13T03:05:02.818Z,35.08
2022-12-13T03:08:20.819Z,34.63
2022-12-13T03:11:10.847Z,33.63
2022-12-13T03:14:00.269Z,35.60
2022-12-13T03:19:33.752Z,31.23
2022-12-13T03:22:19.578Z,30.60
2022-12-13T03:25:04.924Z,31.83
2022-12-13T03:27:51.069Z,27.88
2022-12-13T03:30:36.509Z,31.42
2022-12-13T03:33:22.713Z,31.92
2022-12-13T03:36:09.034Z,30.10
2022-12-13T03:38:55.122Z,27.75
2022-12-13T03:41:40.674Z,28.08
2022-12-13T03:44:31.708Z,29.08
2022-12-13T03:47:17.415Z,29.35
2022-12-13T03:50:25.742Z,30.42
2022-12-13T03:53:08.846Z,27.40
2022-12-13T03:56:08.767Z,29.35
2022-12-13T03:58:54.145Z,28.55
2022-12-13T04:01:39.313Z,29.52
2022-12-13T04:04:24.724Z,31.50
2022-12-13T04:07:22.063Z,28.80
2022-12-13T04:10:26.143Z,27.30
2022-12-13T04:13:30.648Z,28.98
2022-12-13T04:16:15.855Z,27.17
2022-12-13T04:19:01.231Z,28.02
2022-12-13T04:21:46.453Z,27.05
2022-12-13T04:24:32.370Z,31.42
2022-12-13T04:27:17.902Z,28.45
2022-12-13T04:30:03.774Z,27.15
2022-12-13T04:32:48.829Z,29.50
2022-12-13T04:35:34.191Z,27.38
2022-12-13T04:38:20.106Z,30.58
2022-12-13T04:41:15.281Z,30.17
2022-12-13T04:44:00.521Z,31.98
2022-12-13T04:46:45.905Z,31.00
2022-12-13T04:49:31.618Z,27.77
2022-12-13T04:52:22.547Z,34.45
2022-12-13T04:55:08.961Z,32.15
2022-12-13T04:57:54.423Z,32.60
2022-12-13T05:00:40.964Z,33.70
2022-12-13T05:03:30.061Z,29.92
2022-12-13T05:06:27.489Z,27.23
2022-12-13T05:09:13.101Z,28.92
2022-12-13T05:12:01.136Z,25.63
2022-12-13T05:14:46.503Z,28.10
2022-12-13T05:17:32.159Z,27.45
2022-12-13T05:20:17.635Z,28.40
2022-12-13T05:23:02.819Z,29.67
2022-12-13T05:25:48.424Z,26.63
2022-12-13T05:28:34.948Z,29.42
2022-12-13T05:31:23.599Z,28.73
2022-12-13T05:34:09.242Z,23.33
2022-12-13T05:36:54.554Z,26.63
2022-12-13T05:39:39.708Z,25.20
2022-12-13T05:42:25.363Z,25.95
2022-12-13T05:45:11.953Z,28.17
2022-12-13T05:47:58.051Z,24.00
2022-12-13T05:50:43.100Z,24.58
2022-12-13T05:53:30.752Z,25.73
2022-12-13T05:56:22.566Z,29.23
2022-12-13T05:59:08.964Z,27.65
2022-12-13T06:01:54.245Z,29.27
2022-12-13T06:04:39.433Z,30.60
2022-12-13T06:07:24.421Z,31.08
2022-12-13T06:10:11.025Z,27.65
2022-12-13T06:13:00.960Z,27.85
2022-12-13T06:15:46.693Z,25.92
2022-12-13T06:18:34.488Z,28.88
2022-12-13T06:21:19.899Z,32.30
2022-12-13T06:24:05.635Z,26.50
2022-12-13T06:26:51.391Z,27.75
2022-12-13T06:29:36.743Z,27.80
2022-12-13T06:32:22.345Z,28.50
2022-12-13T06:35:08.954Z,30.55
2022-12-13T06:38:21.812Z,29.13
2022-12-13T06:41:17.013Z,30.95
2022-12-13T06:44:02.243Z,26.30
2022-12-13T06:46:47.485Z,28.90
2022-12-13T06:49:32.736Z,33.33
2022-12-13T06:52:18.019Z,29.42
2022-12-13T06:55:03.673Z,33.55
2022-12-13T06:57:48.917Z,29.75
2022-12-13T07:00:40.900Z,30.63
2022-12-13T07:03:35.732Z,36.92
2022-12-13T07:06:22.038Z,31.25
2022-12-13T07:09:07.312Z,34.42
2022-12-13T07:11:52.891Z,33.60
2022-12-13T07:14:40.780Z,35.03
2022-12-13T07:17:33.512Z,31.33
2022-12-13T07:20:20.152Z,36.88
2022-12-13T07:23:05.399Z,37.58
2022-12-13T07:25:54.779Z,41.60
2022-12-13T07:28:40.025Z,31.80
2022-12-13T07:31:25.699Z,34.33
2022-12-13T07:34:15.414Z,36.85
2022-12-13T07:37:00.997Z,37.58
2022-12-13T07:39:47.100Z,42.53
2022-12-13T07:42:32.433Z,38.72
2022-12-13T07:45:17.949Z,40.78
2022-12-13T07:48:05.423Z,33.58
2022-12-13T07:50:54.779Z,36.85
2022-12-13T07:53:41.147Z,33.67
2022-12-13T07:56:26.199Z,36.80
2022-12-13T07:59:11.936Z,36.28
2022-12-13T08:01:57.662Z,40.22
2022-12-13T08:04:54.524Z,36.25
2022-12-13T08:07:40.288Z,36.58
2022-12-13T08:10:25.998Z,37.90
2022-12-13T08:13:11.213Z,36.92
2022-12-13T08:16:26.176Z,40.35
2022-12-13T08:19:13.671Z,41.60
2022-12-13T08:22:01.708Z,39.70
2022-12-13T08:24:47.072Z,39.90
2022-12-13T08:27:33.146Z,40.47
2022-12-13T08:30:23.164Z,33.38
2022-12-13T08:33:08.941Z,33.83
2022-12-13T08:35:54.211Z,44.08
2022-12-13T08:38:39.269Z,43.50
2022-12-13T08:41:24.969Z,37.63
2022-12-13T08:44:10.190Z,41.45
2022-12-13T08:46:55.355Z,39.75
2022-12-13T08:49:41.590Z,37.10
2022-12-13T08:52:26.993Z,39.25
2022-12-13T08:55:14.157Z,38.60
2022-12-13T08:58:03.945Z,37.65
2022-12-13T09:00:49.292Z,38.70
2022-12-13T09:03:35.951Z,32.55
2022-12-13T09:06:21.067Z,37.08
2022-12-13T09:09:06.435Z,38.35
2022-12-13T09:11:51.989Z,38.95
2022-12-13T09:14:46.540Z,35.28
2022-12-13T09:17:37.254Z,37.63
2022-12-13T09:20:29.789Z,32.60
2022-12-13T09:23:23.649Z,30.15
2022-12-13T09:26:11.741Z,31.45
2022-12-13T09:29:00.339Z,36.67
2022-12-13T09:31:56.795Z,32.08
2022-12-13T09:34:42.234Z,31.35
2022-12-13T09:37:32.036Z,34.20
2022-12-13T09:40:26.635Z,35.40
2022-12-13T09:43:42.670Z,34.05
2022-12-13T09:46:44.344Z,33.53
2022-12-13T09:49:35.726Z,34.25
2022-12-13T09:52:24.008Z,34.30
2022-12-13T09:55:22.440Z,32.42
2022-12-13T09:58:20.686Z,31.38
2022-12-13T10:01:06.367Z,34.65
2022-12-13T10:03:54.209Z,49.53
2022-12-13T10:06:39.740Z,32.45
2022-12-13T10:09:25.142Z,32.70
2022-12-13T10:12:15.188Z,30.73
2022-12-13T10:15:03.585Z,30.15
2022-12-13T10:17:55.190Z,29.02
2022-12-13T10:20:41.698Z,31.27
2022-12-13T10:23:42.580Z,29.40
2022-12-13T10:26:38.212Z,30.58
2022-12-13T10:32:13.386Z,32.00
2022-12-13T10:34:58.517Z,30.00
2022-12-13T10:37:43.910Z,42.30
2022-12-13T10:40:38.135Z,36.83
2022-12-13T10:43:28.301Z,29.70
2022-12-13T10:46:25.194Z,26.65
2022-12-13T10:49:26.158Z,28.67
2022-12-13T10:52:43.436Z,30.38
2022-12-13T10:55:35.086Z,30.08
2022-12-13T10:58:20.854Z,30.52
2022-12-13T11:01:11.191Z,29.60
2022-12-13T11:03:56.814Z,29.00
2022-12-13T11:06:48.325Z,31.23
2022-12-13T11:09:38.402Z,25.55
2022-12-13T11:12:27.390Z,25.15
2022-12-13T11:15:24.066Z,27.35
2022-12-13T11:18:21.742Z,25.85
2022-12-13T11:21:07.785Z,29.80
2022-12-13T11:24:01.779Z,31.80
2022-12-13T11:26:54.130Z,28.30
2022-12-13T11:29:46.062Z,30.27
2022-12-13T11:32:43.812Z,26.73
2022-12-13T11:35:41.603Z,25.27
2022-12-13T11:38:34.154Z,28.35
2022-12-13T11:41:36.494Z,27.73
2022-12-13T11:44:51.957Z,27.38
2022-12-13T11:47:47.978Z,29.27
2022-12-13T11:50:42.690Z,25.52
2022-12-13T11:53:40.975Z,28.98
2022-12-13T11:56:38.701Z,27.75
2022-12-13T11:59:42.347Z,24.55
2022-12-13T12:02:31.509Z,34.55
2022-12-13T12:05:43.149Z,27.65
2022-12-13T12:08:57.444Z,24.92
2022-12-13T12:11:56.514Z,22.95
2022-12-13T12:14:46.602Z,24.30
2022-12-13T12:17:36.431Z,23.13
2022-12-13T12:20:53.719Z,27.55
2022-12-13T12:23:54.687Z,21.67
2022-12-13T12:26:57.086Z,24.92
2022-12-13T12:30:00.569Z,26.17
2022-12-13T12:33:13.503Z,27.10
2022-12-13T12:36:12.146Z,21.23
2022-12-13T12:39:26.208Z,25.70
2022-12-13T12:43:14.132Z,25.45
2022-12-13T12:46:17.121Z,31.75
2022-12-13T12:49:29.234Z,25.17
2022-12-13T12:52:45.536Z,25.65
2022-12-13T12:55:42.516Z,28.48
2022-12-13T12:58:39.719Z,23.40
2022-12-13T13:01:36.094Z,19.50
2022-12-13T13:04:36.018Z,21.98
2022-12-13T13:07:27.532Z,23.67
2022-12-13T13:10:25.836Z,22.02
2022-12-13T13:13:35.429Z,23.90
2022-12-13T13:16:40.196Z,21.73
2022-12-13T13:19:31.415Z,21.98
2022-12-13T13:22:33.570Z,25.17
2022-12-13T13:25:31.053Z,21.60
2022-12-13T13:28:17.870Z,21.30
2022-12-13T13:31:07.949Z,22.42
2022-12-13T13:33:53.098Z,26.85
2022-12-13T13:36:39.509Z,20.27
2022-12-13T13:39:27.961Z,25.73
2022-12-13T13:42:19.691Z,24.30
2022-12-13T13:45:22.480Z,19.63
2022-12-13T13:48:40.340Z,23.95
2022-12-13T13:55:35.066Z,24.45
2022-12-13T13:58:39.651Z,26.38
2022-12-13T14:01:59.651Z,21.95
2022-12-13T14:05:02.230Z,23.50
2022-12-13T14:08:11.788Z,26.33
2022-12-13T14:11:12.447Z,24.15
2022-12-13T14:14:40.628Z,26.45
2022-12-13T14:17:50.776Z,27.70
2022-12-13T14:20:45.845Z,31.25
2022-12-13T14:23:56.868Z,27.55
2022-12-13T14:27:03.261Z,22.80
2022-12-13T14:29:58.407Z,27.33
2022-12-13T14:32:47.673Z,26.08
2022-12-13T14:35:33.306Z,26.60
2022-12-13T14:38:25.463Z,22.42
2022-12-13T14:41:18.519Z,24.27
2022-12-13T14:44:27.654Z,26.33
2022-12-13T14:47:14.814Z,29.08
2022-12-13T14:50:00.259Z,30.98
2022-12-13T14:52:46.867Z,30.40
2022-12-13T14:55:36.550Z,30.77
2022-12-13T14:58:22.132Z,30.58
2022-12-13T15:01:29.298Z,25.63
2022-12-13T15:04:21.576Z,27.40
2022-12-13T15:07:24.264Z,25.60
2022-12-13T15:10:20.881Z,31.08
2022-12-13T15:13:07.174Z,30.73
2022-12-13T15:15:55.690Z,30.50
2022-12-13T15:18:42.291Z,25.90
2022-12-13T15:21:33.689Z,29.50
2022-12-13T15:24:30.042Z,28.65
2022-12-13T15:27:24.446Z,27.13
2022-12-13T15:30:14.329Z,24.73
2022-12-13T15:33:15.866Z,25.98
2022-12-13T15:36:07.461Z,27.95
2022-12-13T15:38:55.695Z,30.67
2022-12-13T15:41:47.526Z,29.50
2022-12-13T15:44:44.656Z,28.58
2022-12-13T15:47:33.701Z,30.77
2022-12-13T15:50:43.861Z,30.00
2022-12-13T15:53:33.952Z,28.08
2022-12-13T15:56:41.402Z,32.60
2022-12-13T15:59:35.353Z,33.38
2022-12-13T16:02:24.294Z,32.75
2022-12-13T16:05:22.986Z,34.50
2022-12-13T16:08:24.603Z,41.70
2022-12-13T16:11:10.155Z,32.15
2022-12-13T16:14:26.099Z,32.50
2022-12-13T16:17:24.400Z,37.55
2022-12-13T16:20:15.690Z,35.58
2022-12-13T16:23:01.056Z,41.78
2022-12-13T16:25:54.839Z,31.30
2022-12-13T16:28:40.920Z,34.90
2022-12-13T16:31:35.306Z,35.80
2022-12-13T16:34:20.896Z,31.90
2022-12-13T16:37:26.070Z,33.75
2022-12-13T16:40:30.938Z,32.00
2022-12-13T16:43:24.339Z,39.00
2022-12-13T16:47:14.502Z,36.10
2022-12-13T16:49:30.758Z,34.72
2022-12-13T16:52:16.597Z,38.00
2022-12-13T16:55:03.792Z,34.40
2022-12-13T16:58:00.574Z,34.55
2022-12-13T17:00:45.903Z,35.60
2022-12-13T17:03:31.417Z,36.85
2022-12-13T17:06:22.983Z,43.55
2022-12-13T17:09:08.316Z,36.90
2022-12-13T17:11:53.926Z,35.13
2022-12-13T17:14:40.625Z,38.65
2022-12-13T17:17:25.899Z,33.17
2022-12-13T17:20:14.908Z,33.72
2022-12-13T17:23:01.368Z,35.47
2022-12-13T17:25:47.019Z,33.53
2022-12-13T17:28:43.701Z,40.47
2022-12-13T17:31:35.441Z,34.72
2022-12-13T17:34:21.771Z,40.13
2022-12-13T17:37:10.441Z,37.97
2022-12-13T17:39:56.001Z,34.47
2022-12-13T17:42:41.416Z,32.22
2022-12-13T17:45:26.985Z,33.63
2022-12-13T17:48:12.607Z,34.08
2022-12-13T17:50:57.701Z,34.90
2022-12-13T17:53:44.230Z,36.60
2022-12-13T17:56:29.450Z,36.53
2022-12-13T17:59:15.327Z,37.55
2022-12-13T18:02:00.515Z,33.20
2022-12-13T18:04:46.137Z,35.53
2022-12-13T18:07:31.229Z,37.00
2022-12-13T18:10:16.624Z,38.47
2022-12-13T18:13:02.293Z,37.85
2022-12-13T18:15:47.517Z,33.05
2022-12-13T18:18:33.138Z,35.05
2022-12-13T18:21:19.080Z,36.45
2022-12-13T18:24:05.603Z,36.03
2022-12-13T18:26:51.403Z,36.20
2022-12-13T18:29:36.574Z,36.25
2022-12-13T18:32:21.648Z,33.17
2022-12-13T18:35:07.480Z,40.25
2022-12-13T18:37:52.944Z,36.35
2022-12-13T18:40:38.290Z,35.72
2022-12-13T18:43:25.032Z,38.28
2022-12-13T18:46:11.861Z,42.83
2022-12-13T18:48:57.855Z,40.80
2022-12-13T18:51:43.059Z,40.53
2022-12-13T18:54:28.480Z,34.92
2022-12-13T18:57:13.978Z,35.35
2022-12-13T18:59:59.288Z,37.45
2022-12-13T19:02:44.361Z,37.50
2022-12-13T19:05:29.812Z,37.05
2022-12-13T19:08:14.970Z,42.80
2022-12-13T19:11:01.898Z,43.50
2022-12-13T19:13:47.746Z,45.95
2022-12-13T19:16:33.021Z,40.72
2022-12-13T19:19:19.217Z,42.95
2022-12-13T19:22:04.597Z,39.13
2022-12-13T19:24:50.126Z,40.17
2022-12-13T19:27:35.211Z,44.13
2022-12-13T19:30:22.929Z,44.17
2022-12-13T19:33:08.053Z,46.53
2022-12-13T19:35:53.477Z,42.95
2022-12-13T19:38:40.173Z,37.10
2022-12-13T19:41:26.250Z,41.30
2022-12-13T19:44:11.913Z,42.28
2022-12-13T19:46:57.483Z,41.53
2022-12-13T19:49:42.635Z,38.60
2022-12-13T19:52:28.240Z,41.25
2022-12-13T19:55:13.377Z,41.63
2022-12-13T19:57:59.654Z,37.15
2022-12-13T20:00:44.915Z,41.33
2022-12-13T20:03:37.752Z,41.72
2022-12-13T20:06:23.195Z,39.40
2022-12-13T20:09:08.464Z,41.35
2022-12-13T20:11:53.824Z,40.67
2022-12-13T20:14:39.418Z,38.97
2022-12-13T20:17:24.507Z,39.63
2022-12-13T20:20:10.831Z,37.03
2022-12-13T20:22:56.089Z,38.20
2022-12-13T20:25:41.484Z,38.15
2022-12-13T20:28:28.655Z,39.75
2022-12-13T20:31:27.357Z,38.75
2022-12-13T20:34:14.356Z,37.53
2022-12-13T20:36:59.922Z,37.28
2022-12-13T20:39:45.077Z,33.35
2022-12-13T20:42:30.505Z,39.80
2022-12-13T20:45:16.450Z,42.38
2022-12-13T20:48:01.896Z,39.72
2022-12-13T20:50:48.863Z,37.30
2022-12-13T20:53:37.689Z,36.35
2022-12-13T20:56:31.654Z,29.27
2022-12-13T20:59:17.076Z,36.58
2022-12-13T21:02:02.485Z,38.80
2022-12-13T21:04:47.904Z,41.83
2022-12-13T21:07:51.830Z,41.15
2022-12-13T21:10:37.405Z,41.65
2022-12-13T21:13:22.348Z,39.38
2022-12-13T21:16:08.178Z,37.55
2022-12-13T21:18:57.728Z,40.95
2022-12-13T21:21:43.317Z,32.15
2022-12-13T21:24:29.379Z,36.65
2022-12-13T21:27:14.908Z,37.25
2022-12-13T21:30:00.346Z,34.85
2022-12-13T21:32:49.842Z,40.22
2022-12-13T21:35:37.991Z,40.97
2022-12-13T21:38:23.434Z,36.42
2022-12-13T21:41:10.351Z,35.65
2022-12-13T21:43:56.942Z,34.72
2022-12-13T21:49:48.706Z,37.47
2022-12-13T21:52:34.790Z,35.35
2022-12-13T21:58:54.981Z,34.78
2022-12-13T22:02:18.049Z,34.13
2022-12-13T22:05:04.170Z,36.83
2022-12-13T22:07:49.492Z,35.28
2022-12-13T22:10:55.226Z,34.80
2022-12-13T22:13:40.944Z,34.88
2022-12-13T22:16:26.150Z,33.72
2022-12-13T22:19:13.345Z,39.53
2022-12-13T22:21:58.769Z,37.03
2022-12-13T22:24:48.461Z,38.30
2022-12-13T22:27:38.256Z,35.80
2022-12-13T22:30:23.633Z,39.85
2022-12-13T22:33:08.836Z,39.60
2022-12-13T22:35:54.030Z,42.58
2022-12-13T22:38:39.411Z,38.47
2022-12-13T22:41:24.950Z,41.45
2022-12-13T22:44:14.656Z,34.97
2022-12-13T22:47:00.565Z,35.75
2022-12-13T22:49:48.599Z,36.70
2022-12-13T22:52:34.300Z,35.92
2022-12-13T22:55:20.247Z,36.60
2022-12-13T22:58:05.610Z,42.05
2022-12-13T23:00:50.835Z,39.55
2022-12-13T23:03:37.122Z,36.85
2022-12-13T23:06:28.211Z,42.92
2022-12-13T23:09:14.376Z,40.28
2022-12-13T23:12:18.448Z,42.63
2022-12-13T23:15:04.943Z,41.83
2022-12-13T23:17:50.098Z,37.78
2022-12-13T23:20:35.846Z,38.95
2022-12-13T23:23:24.340Z,35.00
2022-12-13T23:26:18.111Z,38.35
2022-12-13T23:29:05.628Z,36.10
2022-12-13T23:31:51.003Z,39.65
2022-12-13T23:34:36.597Z,33.90
2022-12-13T23:37:21.786Z,36.47
2022-12-13T23:40:08.234Z,38.67
2022-12-13T23:42:53.901Z,34.47
2022-12-13T23:45:39.849Z,31.45
2022-12-13T23:48:27.132Z,32.20
2022-12-13T23:51:15.137Z,31.75
2022-12-13T23:54:00.329Z,34.95
2022-12-13T23:56:45.997Z,34.17
2022-12-13T23:59:31.388Z,30.10
